Waverly, NY (14892)

12:06 AM EST on December 22, 2014 (GMT -0500)
Walker Hill Rd | Change Station
CLOSE
Current Station
Personal Weather Station
Location: Waverly, NY
Elevation: 1358 ft
Nearby Weather Stations

Elev 1358 ft 42.04 °N, 76.54 °W | Updated 1 second ago

Overcast
Overcast
27.5 °F
Feels Like 28 °F
N
1.2
Wind Variable Wind from ESE
Gusts 3.0 mph

Today
High -- | Low -- °F
--% Chance of Precip.
Yesterday
High -- | Low -- °F
Precip. -- in
7:31 AM 4:38 PM
New Moon, 0% visible
Pressure 30.33 in
Visibility 10.0 miles
Clouds Overcast 2700 ft
Windchill 28 °F
Dew Point 21 °F
Humidity 76%
Rainfall 0.00 in
Snow Depth Not available.
UV 0.0 out of 12
Pollen .10 out of 12
Air Quality Not available.
Flu Activity Not available.
METAR KELM 220453Z AUTO 17003KT 10SM OVC027 M03/M06 A3029 RMK AO2 SLP269 T10281056 400061033

More Conditions Fewer Conditions

Pressure 30.33 in
Visibility 10.0 miles
Clouds Overcast 2700 ft
Windchill 28 °F
Dew Point 21 °F
Humidity 76%
Rainfall 0.00 in
Snow Depth Not available.
UV 0.0 out of 12
Pollen .10 out of 12
Air Quality Not available.
Flu Activity Not available.
METAR KELM 220453Z AUTO 17003KT 10SM OVC027 M03/M06 A3029 RMK AO2 SLP269 T10281056 400061033

More Conditions Fewer Conditions

10-Day Weather Forecast

Almanac

Astronomy

Dec. 22, 2014 Rise Set
Actual Time
Civil Twilight
Nautical Twilight
Astronomical Twilight
Moon
Length of Visible Light
Length of Day
Tomorrow will be .
, % of the Moon is Illuminated

Today's Extremes

State Highs State Lows

Community

WunderPhotos

Upload Photos

1,779,547 photos uploaded!

WunderBlogs® & News

Nearby

Air Quality

  Air Quality AQ Index Pollutant
Not available.

Snow Depth

Station Depth Elevation

Earthquake Activity

City Distance Mag. Time & Date
Minimum magnitude displayed is 2.5.

Coastal Water Temperatures

Place Temperature

Nearby Weather Stations